sensor_id;sensor_type;location;lat;lon;timestamp;temperature;humidity
3944;DHT22;1986;52.546;13.428;2024-01-15T00:01:57;2.10;99.90
3944;DHT22;1986;52.546;13.428;2024-01-15T00:04:24;2.10;99.90
3944;DHT22;1986;52.546;13.428;2024-01-15T00:06:51;2.10;99.90
3944;DHT22;1986;52.546;13.428;2024-01-15T00:09:18;2.00;99.90
3944;DHT22;1986;52.546;13.428;2024-01-15T00:11:45;2.00;99.90
3944;DHT22;1986;52.546;13.428;2024-01-15T00:14:14;2.00;99.90
3944;DHT22;1986;52.546;13.428;2024-01-15T00:16:45;2.00;99.90
3944;DHT22;1986;52.546;13.428;2024-01-15T00:19:12;1.90;99.90
3944;DHT22;1986;52.546;13.428;2024-01-15T00:21:39;1.90;99.90
3944;DHT22;1986;52.546;13.428;2024-01-15T00:24:06;1.90;99.90
3944;DHT22;1986;52.546;13.428;2024-01-15T00:26:33;2.00;99.90
3944;DHT22;1986;52.546;13.428;2024-01-15T00:29:00;1.90;99.90
3944;DHT22;1986;52.546;13.428;2024-01-15T00:31:29;1.90;99.90
3944;DHT22;1986;52.546;13.428;2024-01-15T00:33:56;1.90;99.90
3944;DHT22;1986;52.546;13.428;2024-01-15T00:36:24;1.90;99.90
3944;DHT22;1986;52.546;13.428;2024-01-15T00:38:51;2.00;99.90
3944;DHT22;1986;52.546;13.428;2024-01-15T00:41:19;2.00;99.90
3944;DHT22;1986;52.546;13.428;2024-01-15T00:43:48;2.00;99.90
3944;DHT22;1986;52.546;13.428;2024-01-15T00:46:15;2.00;99.90
3944;DHT22;1986;52.546;13.428;2024-01-15T00:48:44;2.00;99.90
3944;DHT22;1986;52.546;13.428;2024-01-15T00:51:14;2.00;99.90
3944;DHT22;1986;52.546;13.428;2024-01-15T00:53:41;2.00;99.90
3944;DHT22;1986;52.546;13.428;2024-01-15T00:56:08;2.00;99.90
3944;DHT22;1986;52.546;13.428;2024-01-15T00:58:35;2.00;99.90
3944;DHT22;1986;52.546;13.428;2024-01-15T01:01:02;1.90;99.90
3944;DHT22;1986;52.546;13.428;2024-01-15T01:03:31;1.90;99.90
3944;DHT22;1986;52.546;13.428;2024-01-15T01:06:00;1.90;99.90
3944;DHT22;1986;52.546;13.428;2024-01-15T01:08:27;1.90;99.90
3944;DHT22;1986;52.546;13.428;2024-01-15T01:10:56;1.80;99.90
3944;DHT22;1986;52.546;13.428;2024-01-15T01:13:24;1.70;99.90
3944;DHT22;1986;52.546;13.428;2024-01-15T01:15:51;1.70;99.90
3944;DHT22;1986;52.546;13.428;2024-01-15T01:18:18;1.60;99.90
3944;DHT22;1986;52.546;13.428;2024-01-15T01:20:45;1.50;99.90
3944;DHT22;1986;52.546;13.428;2024-01-15T01:23:13;1.40;99.90
3944;DHT22;1986;52.546;13.428;2024-01-15T01:25:40;1.40;99.90
3944;DHT22;1986;52.546;13.428;2024-01-15T01:28:07;1.40;99.90
3944;DHT22;1986;52.546;13.428;2024-01-15T01:30:35;1.40;99.90
3944;DHT22;1986;52.546;13.428;2024-01-15T01:33:05;1.40;99.90
3944;DHT22;1986;52.546;13.428;2024-01-15T01:35:32;1.40;99.90
3944;DHT22;1986;52.546;13.428;2024-01-15T01:37:59;1.40;99.90
3944;DHT22;1986;52.546;13.428;2024-01-15T01:40:27;1.40;99.90
3944;DHT22;1986;52.546;13.428;2024-01-15T01:42:54;1.40;99.90
3944;DHT22;1986;52.546;13.428;2024-01-15T01:45:21;1.40;99.90
3944;DHT22;1986;52.546;13.428;2024-01-15T01:47:48;1.40;99.90
3944;DHT22;1986;52.546;13.428;2024-01-15T01:50:15;1.40;99.90
3944;DHT22;1986;52.546;13.428;2024-01-15T01:52:42;1.40;99.90
3944;DHT22;1986;52.546;13.428;2024-01-15T01:55:10;1.30;99.90
3944;DHT22;1986;52.546;13.428;2024-01-15T01:57:40;1.30;99.90
3944;DHT22;1986;52.546;13.428;2024-01-15T02:00:09;1.30;99.90
3944;DHT22;1986;52.546;13.428;2024-01-15T02:02:36;1.30;99.90
3944;DHT22;1986;52.546;13.428;2024-01-15T02:05:04;1.30;99.90
3944;DHT22;1986;52.546;13.428;2024-01-15T02:07:34;1.30;99.90
3944;DHT22;1986;52.546;13.428;2024-01-15T02:10:01;1.40;99.90
3944;DHT22;1986;52.546;13.428;2024-01-15T02:12:28;1.40;99.90
3944;DHT22;1986;52.546;13.428;2024-01-15T02:14:57;1.40;99.90
3944;DHT22;1986;52.546;13.428;2024-01-15T02:17:24;1.40;99.90
3944;DHT22;1986;52.546;13.428;2024-01-15T02:19:51;1.40;99.90
3944;DHT22;1986;52.546;13.428;2024-01-15T02:22:18;1.30;99.90
3944;DHT22;1986;52.546;13.428;2024-01-15T02:24:47;1.40;99.90
3944;DHT22;1986;52.546;13.428;2024-01-15T02:27:14;1.40;99.90
3944;DHT22;1986;52.546;13.428;2024-01-15T02:29:41;1.40;99.90
3944;DHT22;1986;52.546;13.428;2024-01-15T02:32:09;1.40;99.90
3944;DHT22;1986;52.546;13.428;2024-01-15T02:34:36;1.40;99.90
3944;DHT22;1986;52.546;13.428;2024-01-15T02:37:03;1.40;99.90
3944;DHT22;1986;52.546;13.428;2024-01-15T02:39:31;1.40;99.90
3944;DHT22;1986;52.546;13.428;2024-01-15T02:42:00;1.40;99.90
3944;DHT22;1986;52.546;13.428;2024-01-15T02:44:27;1.50;99.90
3944;DHT22;1986;52.546;13.428;2024-01-15T02:46:54;1.40;99.90
3944;DHT22;1986;52.546;13.428;2024-01-15T02:49:20;1.40;99.90
3944;DHT22;1986;52.546;13.428;2024-01-15T02:51:47;1.50;99.90
3944;DHT22;1986;52.546;13.428;2024-01-15T02:54:14;1.50;99.90
3944;DHT22;1986;52.546;13.428;2024-01-15T02:56:41;1.50;99.90
3944;DHT22;1986;52.546;13.428;2024-01-15T02:59:09;1.50;99.90
3944;DHT22;1986;52.546;13.428;2024-01-15T03:01:36;1.60;99.90
3944;DHT22;1986;52.546;13.428;2024-01-15T03:04:04;1.50;99.90
3944;DHT22;1986;52.546;13.428;2024-01-15T03:06:31;1.60;99.90
3944;DHT22;1986;52.546;13.428;2024-01-15T03:08:58;1.60;99.90
3944;DHT22;1986;52.546;13.428;2024-01-15T03:11:25;1.60;99.90
3944;DHT22;1986;52.546;13.428;2024-01-15T03:13:53;1.60;99.90
3944;DHT22;1986;52.546;13.428;2024-01-15T03:16:21;1.60;99.90
3944;DHT22;1986;52.546;13.428;2024-01-15T03:18:48;1.60;99.90
3944;DHT22;1986;52.546;13.428;2024-01-15T03:21:15;1.60;99.90
3944;DHT22;1986;52.546;13.428;2024-01-15T03:23:45;1.60;99.90
3944;DHT22;1986;52.546;13.428;2024-01-15T03:26:12;1.70;99.90
3944;DHT22;1986;52.546;13.428;2024-01-15T03:28:38;1.70;99.90
3944;DHT22;1986;52.546;13.428;2024-01-15T03:31:06;1.70;99.90
3944;DHT22;1986;52.546;13.428;2024-01-15T03:33:35;1.70;99.90
3944;DHT22;1986;52.546;13.428;2024-01-15T03:36:02;1.70;99.90
3944;DHT22;1986;52.546;13.428;2024-01-15T03:38:29;1.70;99.90
3944;DHT22;1986;52.546;13.428;2024-01-15T03:40:56;1.70;99.90
3944;DHT22;1986;52.546;13.428;2024-01-15T03:43:23;1.70;99.90
3944;DHT22;1986;52.546;13.428;2024-01-15T03:45:50;1.70;99.90
3944;DHT22;1986;52.546;13.428;2024-01-15T03:48:17;1.70;99.90
3944;DHT22;1986;52.546;13.428;2024-01-15T03:50:53;1.70;99.90
3944;DHT22;1986;52.546;13.428;2024-01-15T03:53:23;1.80;99.90
3944;DHT22;1986;52.546;13.428;2024-01-15T03:55:51;1.80;99.90
3944;DHT22;1986;52.546;13.428;2024-01-15T03:58:18;1.80;99.90
3944;DHT22;1986;52.546;13.428;2024-01-15T04:00:48;1.80;99.90
3944;DHT22;1986;52.546;13.428;2024-01-15T04:03:18;1.80;99.90
3944;DHT22;1986;52.546;13.428;2024-01-15T04:05:44;1.80;99.90
3944;DHT22;1986;52.546;13.428;2024-01-15T04:08:13;1.80;99.90
3944;DHT22;1986;52.546;13.428;2024-01-15T04:10:40;1.80;99.90
3944;DHT22;1986;52.546;13.428;2024-01-15T04:13:08;1.80;99.90
3944;DHT22;1986;52.546;13.428;2024-01-15T04:15:37;1.70;99.90
3944;DHT22;1986;52.546;13.428;2024-01-15T04:18:05;1.80;99.90
3944;DHT22;1986;52.546;13.428;2024-01-15T04:20:32;1.80;99.90
3944;DHT22;1986;52.546;13.428;2024-01-15T04:22:59;1.80;99.90
3944;DHT22;1986;52.546;13.428;2024-01-15T04:25:27;1.80;99.90
3944;DHT22;1986;52.546;13.428;2024-01-15T04:27:54;1.80;99.90
3944;DHT22;1986;52.546;13.428;2024-01-15T04:30:21;1.80;99.90
3944;DHT22;1986;52.546;13.428;2024-01-15T04:32:49;1.80;99.90
3944;DHT22;1986;52.546;13.428;2024-01-15T04:35:16;1.80;99.90
3944;DHT22;1986;52.546;13.428;2024-01-15T04:37:43;1.80;99.90
3944;DHT22;1986;52.546;13.428;2024-01-15T04:40:11;1.80;99.90
3944;DHT22;1986;52.546;13.428;2024-01-15T04:42:40;1.80;99.90
3944;DHT22;1986;52.546;13.428;2024-01-15T04:45:07;1.90;99.90
3944;DHT22;1986;52.546;13.428;2024-01-15T04:47:35;1.90;99.90
3944;DHT22;1986;52.546;13.428;2024-01-15T04:50:02;1.90;99.90
3944;DHT22;1986;52.546;13.428;2024-01-15T04:52:32;1.90;99.90
3944;DHT22;1986;52.546;13.428;2024-01-15T04:54:58;1.90;99.90
3944;DHT22;1986;52.546;13.428;2024-01-15T04:57:25;1.90;99.90
3944;DHT22;1986;52.546;13.428;2024-01-15T04:59:54;1.90;99.90
3944;DHT22;1986;52.546;13.428;2024-01-15T05:02:22;1.90;99.90
3944;DHT22;1986;52.546;13.428;2024-01-15T05:04:49;1.90;99.90
3944;DHT22;1986;52.546;13.428;2024-01-15T05:07:16;1.90;99.90
3944;DHT22;1986;52.546;13.428;2024-01-15T05:09:43;1.90;99.90
3944;DHT22;1986;52.546;13.428;2024-01-15T05:12:10;1.90;99.90
3944;DHT22;1986;52.546;13.428;2024-01-15T05:14:37;2.00;99.90
3944;DHT22;1986;52.546;13.428;2024-01-15T05:17:05;2.00;99.90
3944;DHT22;1986;52.546;13.428;2024-01-15T05:19:32;2.00;99.90
3944;DHT22;1986;52.546;13.428;2024-01-15T05:22:00;2.00;99.90
3944;DHT22;1986;52.546;13.428;2024-01-15T05:24:27;2.00;99.90
3944;DHT22;1986;52.546;13.428;2024-01-15T05:26:54;2.00;99.90
3944;DHT22;1986;52.546;13.428;2024-01-15T05:29:21;2.00;99.90
3944;DHT22;1986;52.546;13.428;2024-01-15T05:31:48;2.00;99.90
3944;DHT22;1986;52.546;13.428;2024-01-15T05:34:17;1.90;99.90
3944;DHT22;1986;52.546;13.428;2024-01-15T05:36:44;2.00;99.90
3944;DHT22;1986;52.546;13.428;2024-01-15T05:39:13;1.90;99.90
3944;DHT22;1986;52.546;13.428;2024-01-15T05:41:40;1.90;99.90
3944;DHT22;1986;52.546;13.428;2024-01-15T05:44:07;2.00;99.90
3944;DHT22;1986;52.546;13.428;2024-01-15T05:46:36;2.00;99.90
3944;DHT22;1986;52.546;13.428;2024-01-15T05:49:03;2.00;99.90
3944;DHT22;1986;52.546;13.428;2024-01-15T05:51:32;2.00;99.90
3944;DHT22;1986;52.546;13.428;2024-01-15T05:53:58;2.10;99.90
3944;DHT22;1986;52.546;13.428;2024-01-15T05:56:25;2.10;99.90
3944;DHT22;1986;52.546;13.428;2024-01-15T05:58:52;2.20;99.90
3944;DHT22;1986;52.546;13.428;2024-01-15T06:01:20;2.10;99.90
3944;DHT22;1986;52.546;13.428;2024-01-15T06:03:46;2.10;99.90
3944;DHT22;1986;52.546;13.428;2024-01-15T06:06:13;2.00;99.90
3944;DHT22;1986;52.546;13.428;2024-01-15T06:08:42;1.90;99.90
3944;DHT22;1986;52.546;13.428;2024-01-15T06:11:09;1.90;99.90
3944;DHT22;1986;52.546;13.428;2024-01-15T06:13:36;1.90;99.90
3944;DHT22;1986;52.546;13.428;2024-01-15T06:16:13;2.00;99.90
3944;DHT22;1986;52.546;13.428;2024-01-15T06:18:42;2.00;99.90
3944;DHT22;1986;52.546;13.428;2024-01-15T06:21:09;2.00;99.90
3944;DHT22;1986;52.546;13.428;2024-01-15T06:23:38;2.10;99.90
3944;DHT22;1986;52.546;13.428;2024-01-15T06:26:08;2.10;99.90
3944;DHT22;1986;52.546;13.428;2024-01-15T06:28:38;2.10;99.90
3944;DHT22;1986;52.546;13.428;2024-01-15T06:31:06;2.10;99.90
3944;DHT22;1986;52.546;13.428;2024-01-15T06:33:33;2.20;99.90
3944;DHT22;1986;52.546;13.428;2024-01-15T06:36:00;2.20;99.90
3944;DHT22;1986;52.546;13.428;2024-01-15T06:38:27;2.20;99.90
3944;DHT22;1986;52.546;13.428;2024-01-15T06:40:53;2.20;99.90
3944;DHT22;1986;52.546;13.428;2024-01-15T06:43:22;2.20;99.90
3944;DHT22;1986;52.546;13.428;2024-01-15T06:45:49;2.10;99.90
3944;DHT22;1986;52.546;13.428;2024-01-15T06:48:15;2.10;99.90
3944;DHT22;1986;52.546;13.428;2024-01-15T06:50:42;2.10;99.90
3944;DHT22;1986;52.546;13.428;2024-01-15T06:53:10;2.10;99.90
3944;DHT22;1986;52.546;13.428;2024-01-15T06:55:37;2.10;99.90
3944;DHT22;1986;52.546;13.428;2024-01-15T06:58:07;2.10;99.90
3944;DHT22;1986;52.546;13.428;2024-01-15T07:00:37;2.20;99.90
3944;DHT22;1986;52.546;13.428;2024-01-15T07:03:04;2.10;99.90
3944;DHT22;1986;52.546;13.428;2024-01-15T07:05:31;2.10;99.90
3944;DHT22;1986;52.546;13.428;2024-01-15T07:07:58;2.10;99.90
3944;DHT22;1986;52.546;13.428;2024-01-15T07:10:25;2.10;99.90
3944;DHT22;1986;52.546;13.428;2024-01-15T07:12:54;2.10;99.90
3944;DHT22;1986;52.546;13.428;2024-01-15T07:15:21;2.10;99.90
3944;DHT22;1986;52.546;13.428;2024-01-15T07:17:49;2.10;99.90
3944;DHT22;1986;52.546;13.428;2024-01-15T07:20:16;2.10;99.90
3944;DHT22;1986;52.546;13.428;2024-01-15T07:22:45;2.10;99.90
3944;DHT22;1986;52.546;13.428;2024-01-15T07:25:13;2.10;99.90
3944;DHT22;1986;52.546;13.428;2024-01-15T07:27:41;2.10;99.90
3944;DHT22;1986;52.546;13.428;2024-01-15T07:30:11;2.10;99.90
3944;DHT22;1986;52.546;13.428;2024-01-15T07:32:38;2.10;99.90
3944;DHT22;1986;52.546;13.428;2024-01-15T07:35:07;2.20;99.90
3944;DHT22;1986;52.546;13.428;2024-01-15T07:37:34;2.30;99.90
3944;DHT22;1986;52.546;13.428;2024-01-15T07:40:01;2.30;99.90
3944;DHT22;1986;52.546;13.428;2024-01-15T07:42:35;2.30;99.90
3944;DHT22;1986;52.546;13.428;2024-01-15T07:45:02;2.30;99.90
3944;DHT22;1986;52.546;13.428;2024-01-15T07:47:32;2.40;99.90
3944;DHT22;1986;52.546;13.428;2024-01-15T07:49:59;2.40;99.90
3944;DHT22;1986;52.546;13.428;2024-01-15T07:52:27;2.40;99.90
3944;DHT22;1986;52.546;13.428;2024-01-15T07:54:54;2.40;99.90
3944;DHT22;1986;52.546;13.428;2024-01-15T07:57:21;2.40;99.90
3944;DHT22;1986;52.546;13.428;2024-01-15T07:59:48;2.40;99.90
3944;DHT22;1986;52.546;13.428;2024-01-15T08:02:18;2.20;99.90
3944;DHT22;1986;52.546;13.428;2024-01-15T08:04:45;2.20;99.90
3944;DHT22;1986;52.546;13.428;2024-01-15T08:07:15;2.30;99.90
3944;DHT22;1986;52.546;13.428;2024-01-15T08:09:44;2.30;99.90
3944;DHT22;1986;52.546;13.428;2024-01-15T08:12:13;2.30;99.90
3944;DHT22;1986;52.546;13.428;2024-01-15T08:14:40;2.40;99.90
3944;DHT22;1986;52.546;13.428;2024-01-15T08:17:07;2.40;99.90
3944;DHT22;1986;52.546;13.428;2024-01-15T08:19:34;2.40;99.90
3944;DHT22;1986;52.546;13.428;2024-01-15T08:22:01;2.40;99.90
3944;DHT22;1986;52.546;13.428;2024-01-15T08:24:28;2.40;99.90
3944;DHT22;1986;52.546;13.428;2024-01-15T08:26:56;2.40;99.90
3944;DHT22;1986;52.546;13.428;2024-01-15T08:29:25;2.40;99.90
3944;DHT22;1986;52.546;13.428;2024-01-15T08:31:52;2.40;99.90
3944;DHT22;1986;52.546;13.428;2024-01-15T08:34:21;2.40;99.90
3944;DHT22;1986;52.546;13.428;2024-01-15T08:36:48;2.40;99.90
3944;DHT22;1986;52.546;13.428;2024-01-15T08:39:15;2.40;99.90
3944;DHT22;1986;52.546;13.428;2024-01-15T08:41:43;2.40;99.90
3944;DHT22;1986;52.546;13.428;2024-01-15T08:44:13;2.40;99.90
3944;DHT22;1986;52.546;13.428;2024-01-15T08:46:43;2.40;99.90
3944;DHT22;1986;52.546;13.428;2024-01-15T08:49:09;2.40;99.90
3944;DHT22;1986;52.546;13.428;2024-01-15T08:51:36;2.40;99.90
3944;DHT22;1986;52.546;13.428;2024-01-15T08:54:04;2.40;99.90
3944;DHT22;1986;52.546;13.428;2024-01-15T08:56:33;2.40;99.90
3944;DHT22;1986;52.546;13.428;2024-01-15T08:59:03;2.40;99.90
3944;DHT22;1986;52.546;13.428;2024-01-15T09:01:31;2.40;99.90
3944;DHT22;1986;52.546;13.428;2024-01-15T09:03:59;2.40;99.90
3944;DHT22;1986;52.546;13.428;2024-01-15T09:06:29;2.40;99.90
3944;DHT22;1986;52.546;13.428;2024-01-15T09:08:56;2.40;99.90
3944;DHT22;1986;52.546;13.428;2024-01-15T09:11:23;2.40;99.90
3944;DHT22;1986;52.546;13.428;2024-01-15T09:13:50;2.40;99.90
3944;DHT22;1986;52.546;13.428;2024-01-15T09:16:17;2.40;99.90
3944;DHT22;1986;52.546;13.428;2024-01-15T09:18:46;2.40;99.90
3944;DHT22;1986;52.546;13.428;2024-01-15T09:21:13;2.40;99.90
3944;DHT22;1986;52.546;13.428;2024-01-15T09:23:40;2.40;99.90
3944;DHT22;1986;52.546;13.428;2024-01-15T09:26:08;2.40;99.90
3944;DHT22;1986;52.546;13.428;2024-01-15T09:28:35;2.40;99.90
3944;DHT22;1986;52.546;13.428;2024-01-15T09:31:02;2.40;99.90
3944;DHT22;1986;52.546;13.428;2024-01-15T09:33:29;2.50;99.90
3944;DHT22;1986;52.546;13.428;2024-01-15T09:36:01;2.50;99.90
3944;DHT22;1986;52.546;13.428;2024-01-15T09:38:30;2.60;99.90
3944;DHT22;1986;52.546;13.428;2024-01-15T09:40:58;2.60;99.90
3944;DHT22;1986;52.546;13.428;2024-01-15T09:43:26;2.60;99.90
3944;DHT22;1986;52.546;13.428;2024-01-15T09:45:53;2.60;99.90
3944;DHT22;1986;52.546;13.428;2024-01-15T09:48:21;2.60;99.90
3944;DHT22;1986;52.546;13.428;2024-01-15T09:50:48;2.70;99.90
3944;DHT22;1986;52.546;13.428;2024-01-15T09:53:17;2.70;99.90
3944;DHT22;1986;52.546;13.428;2024-01-15T09:55:46;2.80;99.90
3944;DHT22;1986;52.546;13.428;2024-01-15T09:58:13;2.80;99.90
3944;DHT22;1986;52.546;13.428;2024-01-15T10:00:41;2.80;99.90
3944;DHT22;1986;52.546;13.428;2024-01-15T10:03:10;2.80;99.90
3944;DHT22;1986;52.546;13.428;2024-01-15T10:05:38;2.80;99.90
3944;DHT22;1986;52.546;13.428;2024-01-15T10:08:05;2.80;99.90
3944;DHT22;1986;52.546;13.428;2024-01-15T10:10:38;2.70;99.90
3944;DHT22;1986;52.546;13.428;2024-01-15T10:13:05;2.80;99.90
3944;DHT22;1986;52.546;13.428;2024-01-15T10:15:34;2.70;99.90
3944;DHT22;1986;52.546;13.428;2024-01-15T10:18:03;2.70;99.90
3944;DHT22;1986;52.546;13.428;2024-01-15T10:20:32;2.70;99.90
3944;DHT22;1986;52.546;13.428;2024-01-15T10:22:59;2.70;99.90
3944;DHT22;1986;52.546;13.428;2024-01-15T10:25:29;2.80;99.90
3944;DHT22;1986;52.546;13.428;2024-01-15T10:28:03;2.90;99.90
3944;DHT22;1986;52.546;13.428;2024-01-15T10:30:32;2.90;99.90
3944;DHT22;1986;52.546;13.428;2024-01-15T10:33:03;2.90;99.90
3944;DHT22;1986;52.546;13.428;2024-01-15T10:35:31;2.80;99.90
3944;DHT22;1986;52.546;13.428;2024-01-15T10:38:00;2.90;99.90
3944;DHT22;1986;52.546;13.428;2024-01-15T10:40:27;2.90;99.90
3944;DHT22;1986;52.546;13.428;2024-01-15T10:42:54;2.90;99.90
3944;DHT22;1986;52.546;13.428;2024-01-15T10:45:23;2.80;99.90
3944;DHT22;1986;52.546;13.428;2024-01-15T10:47:53;2.90;99.90
3944;DHT22;1986;52.546;13.428;2024-01-15T10:50:24;2.90;99.90
3944;DHT22;1986;52.546;13.428;2024-01-15T10:52:52;2.90;99.90
3944;DHT22;1986;52.546;13.428;2024-01-15T10:55:23;2.90;99.90
3944;DHT22;1986;52.546;13.428;2024-01-15T10:57:51;3.00;99.90
3944;DHT22;1986;52.546;13.428;2024-01-15T11:00:18;2.90;99.90
3944;DHT22;1986;52.546;13.428;2024-01-15T11:02:47;3.00;99.90
3944;DHT22;1986;52.546;13.428;2024-01-15T11:05:14;3.00;99.90
3944;DHT22;1986;52.546;13.428;2024-01-15T11:07:43;2.90;99.90
3944;DHT22;1986;52.546;13.428;2024-01-15T11:10:38;3.00;99.90
3944;DHT22;1986;52.546;13.428;2024-01-15T11:13:10;3.10;99.90
3944;DHT22;1986;52.546;13.428;2024-01-15T11:15:58;3.10;99.90
3944;DHT22;1986;52.546;13.428;2024-01-15T11:18:29;3.00;99.90
3944;DHT22;1986;52.546;13.428;2024-01-15T11:21:19;3.00;99.90
3944;DHT22;1986;52.546;13.428;2024-01-15T11:23:49;3.00;99.90
3944;DHT22;1986;52.546;13.428;2024-01-15T11:26:30;3.00;99.90
3944;DHT22;1986;52.546;13.428;2024-01-15T11:28:58;3.00;99.90
3944;DHT22;1986;52.546;13.428;2024-01-15T11:31:27;3.00;99.90
3944;DHT22;1986;52.546;13.428;2024-01-15T11:33:57;3.00;99.90
3944;DHT22;1986;52.546;13.428;2024-01-15T11:37:01;3.00;99.90
3944;DHT22;1986;52.546;13.428;2024-01-15T11:39:40;3.00;99.90
3944;DHT22;1986;52.546;13.428;2024-01-15T11:42:21;2.90;99.90
3944;DHT22;1986;52.546;13.428;2024-01-15T11:44:53;2.80;99.90
3944;DHT22;1986;52.546;13.428;2024-01-15T11:48:06;2.80;99.90
3944;DHT22;1986;52.546;13.428;2024-01-15T11:54:07;2.60;99.90
3944;DHT22;1986;52.546;13.428;2024-01-15T12:00:13;2.00;99.90
3944;DHT22;1986;52.546;13.428;2024-01-15T12:03:02;1.80;99.90
3944;DHT22;1986;52.546;13.428;2024-01-15T12:05:47;1.70;99.90
3944;DHT22;1986;52.546;13.428;2024-01-15T12:08:28;1.70;99.90
3944;DHT22;1986;52.546;13.428;2024-01-15T12:11:00;1.70;99.90
3944;DHT22;1986;52.546;13.428;2024-01-15T12:13:31;1.80;99.90
3944;DHT22;1986;52.546;13.428;2024-01-15T12:15:58;1.80;99.90
3944;DHT22;1986;52.546;13.428;2024-01-15T12:18:33;1.80;99.90
3944;DHT22;1986;52.546;13.428;2024-01-15T12:21:05;1.90;99.90
3944;DHT22;1986;52.546;13.428;2024-01-15T12:23:34;2.00;99.90
3944;DHT22;1986;52.546;13.428;2024-01-15T12:26:06;2.00;99.90
3944;DHT22;1986;52.546;13.428;2024-01-15T12:28:34;2.10;99.90
3944;DHT22;1986;52.546;13.428;2024-01-15T12:31:10;2.10;99.90
3944;DHT22;1986;52.546;13.428;2024-01-15T12:33:37;2.00;99.90
3944;DHT22;1986;52.546;13.428;2024-01-15T12:36:10;2.00;99.90
3944;DHT22;1986;52.546;13.428;2024-01-15T12:38:41;2.00;99.90
3944;DHT22;1986;52.546;13.428;2024-01-15T12:41:10;2.00;99.90
3944;DHT22;1986;52.546;13.428;2024-01-15T12:43:37;2.00;99.90
3944;DHT22;1986;52.546;13.428;2024-01-15T12:46:06;1.90;99.90
3944;DHT22;1986;52.546;13.428;2024-01-15T12:48:38;1.70;99.90
3944;DHT22;1986;52.546;13.428;2024-01-15T12:51:07;1.60;99.90
3944;DHT22;1986;52.546;13.428;2024-01-15T12:53:37;1.60;99.90
3944;DHT22;1986;52.546;13.428;2024-01-15T12:56:09;1.60;99.90
3944;DHT22;1986;52.546;13.428;2024-01-15T12:58:48;1.60;99.90
3944;DHT22;1986;52.546;13.428;2024-01-15T13:01:33;1.60;99.90
3944;DHT22;1986;52.546;13.428;2024-01-15T13:04:20;1.70;99.90
3944;DHT22;1986;52.546;13.428;2024-01-15T13:06:47;1.80;99.90
3944;DHT22;1986;52.546;13.428;2024-01-15T13:09:17;1.80;99.90
3944;DHT22;1986;52.546;13.428;2024-01-15T13:11:48;1.90;99.90
3944;DHT22;1986;52.546;13.428;2024-01-15T13:14:15;1.90;99.90
3944;DHT22;1986;52.546;13.428;2024-01-15T13:16:42;2.30;99.90
3944;DHT22;1986;52.546;13.428;2024-01-15T13:19:12;2.50;99.90
3944;DHT22;1986;52.546;13.428;2024-01-15T13:21:40;2.20;99.90
3944;DHT22;1986;52.546;13.428;2024-01-15T13:31:10;2.00;99.90
3944;DHT22;1986;52.546;13.428;2024-01-15T13:33:45;2.00;99.90
3944;DHT22;1986;52.546;13.428;2024-01-15T13:36:17;2.00;99.90
3944;DHT22;1986;52.546;13.428;2024-01-15T13:38:48;2.00;99.90
3944;DHT22;1986;52.546;13.428;2024-01-15T13:41:18;2.00;99.90
3944;DHT22;1986;52.546;13.428;2024-01-15T13:43:53;2.00;99.90
3944;DHT22;1986;52.546;13.428;2024-01-15T13:46:25;2.00;99.90
3944;DHT22;1986;52.546;13.428;2024-01-15T13:48:55;2.10;99.90
3944;DHT22;1986;52.546;13.428;2024-01-15T13:51:49;2.10;99.90
3944;DHT22;1986;52.546;13.428;2024-01-15T13:54:33;2.00;99.90
3944;DHT22;1986;52.546;13.428;2024-01-15T13:57:01;2.00;99.90
3944;DHT22;1986;52.546;13.428;2024-01-15T13:59:31;2.00;99.90
3944;DHT22;1986;52.546;13.428;2024-01-15T14:02:08;2.00;99.90
3944;DHT22;1986;52.546;13.428;2024-01-15T14:04:35;2.10;99.90
3944;DHT22;1986;52.546;13.428;2024-01-15T14:07:03;2.20;99.90
3944;DHT22;1986;52.546;13.428;2024-01-15T14:09:44;2.20;99.90
3944;DHT22;1986;52.546;13.428;2024-01-15T14:12:13;2.20;99.90
3944;DHT22;1986;52.546;13.428;2024-01-15T14:14:55;2.20;99.90
3944;DHT22;1986;52.546;13.428;2024-01-15T14:17:28;2.10;99.90
3944;DHT22;1986;52.546;13.428;2024-01-15T14:20:01;2.10;99.90
3944;DHT22;1986;52.546;13.428;2024-01-15T14:22:42;2.00;99.90
3944;DHT22;1986;52.546;13.428;2024-01-15T14:25:12;2.10;99.90
3944;DHT22;1986;52.546;13.428;2024-01-15T14:27:52;2.10;99.90
3944;DHT22;1986;52.546;13.428;2024-01-15T14:30:37;2.20;99.90
3944;DHT22;1986;52.546;13.428;2024-01-15T14:33:23;2.10;99.90
3944;DHT22;1986;52.546;13.428;2024-01-15T14:35:50;2.10;99.90
3944;DHT22;1986;52.546;13.428;2024-01-15T14:38:19;2.20;99.90
3944;DHT22;1986;52.546;13.428;2024-01-15T14:40:57;2.20;99.90
3944;DHT22;1986;52.546;13.428;2024-01-15T14:43:24;2.20;99.90
3944;DHT22;1986;52.546;13.428;2024-01-15T14:45:54;2.20;99.90
3944;DHT22;1986;52.546;13.428;2024-01-15T14:48:24;2.10;99.90
3944;DHT22;1986;52.546;13.428;2024-01-15T14:50:51;2.10;99.90
3944;DHT22;1986;52.546;13.428;2024-01-15T14:53:19;2.10;99.90
3944;DHT22;1986;52.546;13.428;2024-01-15T14:55:46;2.10;99.90
3944;DHT22;1986;52.546;13.428;2024-01-15T14:58:13;2.10;99.90
3944;DHT22;1986;52.546;13.428;2024-01-15T15:00:41;2.10;99.90
3944;DHT22;1986;52.546;13.428;2024-01-15T15:03:12;2.10;99.90
3944;DHT22;1986;52.546;13.428;2024-01-15T15:05:46;2.00;99.90
3944;DHT22;1986;52.546;13.428;2024-01-15T15:08:14;2.10;99.90
3944;DHT22;1986;52.546;13.428;2024-01-15T15:10:42;2.00;99.90
3944;DHT22;1986;52.546;13.428;2024-01-15T15:13:11;2.00;99.90
3944;DHT22;1986;52.546;13.428;2024-01-15T15:15:39;2.00;99.90
3944;DHT22;1986;52.546;13.428;2024-01-15T15:18:06;1.90;99.90
3944;DHT22;1986;52.546;13.428;2024-01-15T15:20:34;1.80;99.90
3944;DHT22;1986;52.546;13.428;2024-01-15T15:23:04;1.80;99.90
3944;DHT22;1986;52.546;13.428;2024-01-15T15:25:35;1.80;99.90
3944;DHT22;1986;52.546;13.428;2024-01-15T15:28:03;1.90;99.90
3944;DHT22;1986;52.546;13.428;2024-01-15T15:30:31;1.80;99.90
3944;DHT22;1986;52.546;13.428;2024-01-15T15:33:28;1.80;99.90
3944;DHT22;1986;52.546;13.428;2024-01-15T15:35:56;1.80;99.90
3944;DHT22;1986;52.546;13.428;2024-01-15T15:38:28;1.80;99.90
3944;DHT22;1986;52.546;13.428;2024-01-15T15:40:55;1.80;99.90
3944;DHT22;1986;52.546;13.428;2024-01-15T15:43:22;1.80;99.90
3944;DHT22;1986;52.546;13.428;2024-01-15T15:45:49;1.80;99.90
3944;DHT22;1986;52.546;13.428;2024-01-15T15:48:18;1.70;99.90
3944;DHT22;1986;52.546;13.428;2024-01-15T15:50:45;1.70;99.90
3944;DHT22;1986;52.546;13.428;2024-01-15T15:53:15;1.70;99.90
3944;DHT22;1986;52.546;13.428;2024-01-15T15:55:59;1.70;99.90
3944;DHT22;1986;52.546;13.428;2024-01-15T15:58:27;1.70;99.90
3944;DHT22;1986;52.546;13.428;2024-01-15T16:00:54;1.60;99.90
3944;DHT22;1986;52.546;13.428;2024-01-15T16:03:21;1.70;99.90
3944;DHT22;1986;52.546;13.428;2024-01-15T16:05:48;1.60;99.90
3944;DHT22;1986;52.546;13.428;2024-01-15T16:08:16;1.60;99.90
3944;DHT22;1986;52.546;13.428;2024-01-15T16:10:44;1.50;99.90
3944;DHT22;1986;52.546;13.428;2024-01-15T16:13:17;1.50;99.90
3944;DHT22;1986;52.546;13.428;2024-01-15T16:15:45;1.60;99.90
3944;DHT22;1986;52.546;13.428;2024-01-15T16:18:12;1.50;99.90
3944;DHT22;1986;52.546;13.428;2024-01-15T16:20:39;1.50;99.90
3944;DHT22;1986;52.546;13.428;2024-01-15T16:23:07;1.40;99.90
3944;DHT22;1986;52.546;13.428;2024-01-15T16:25:34;1.40;99.90
3944;DHT22;1986;52.546;13.428;2024-01-15T16:28:03;1.40;99.90
3944;DHT22;1986;52.546;13.428;2024-01-15T16:30:33;1.40;99.90